Current Weather

Yuma Mcas/Yuma Intl

Yuma, Arizona (KNYL)

Report from: Sunday, June 26, 2022 9:57 AM MST
Current time: Sunday, June 26, 2022 10:59 AM MST

Nearby weather
Weather history
Weather forecast

Temperature35.6°C (96.1°F)
Heat index38.0°C (100.4°F)
Dew point19.4°C (66.9°F)
Winds 16 kts (8.2 m/s, 18.4 mph) South (170°)
Wind gusts 20 kts (10.3 m/s, 23 mph)
Visibility10 mi. (16.1 km)
Clouds Sky clear
Altimeter29.93 in.Hg (1014 mB)
Relative humidity39 %
Density altitude2,631 ft. (802 m)
Sea-level pressure101.3 kPa (1013 mB, 29.92 in.Hg)
Remarks Fully automated report
System requires maintenance
Automated weather observing station with precipitation discriminator
Flight conditions Visual Meteorological Conditions
Raw dataKNYL 261657Z AUTO 17016G20KT 10SM CLR 36/19 A2993 RMK AO2 SLP132 T03560194 $
An error has occurred. This application may no longer respond until reloaded. Reload 🗙